Holmsk, Russia
Current Conditions -  °F | °C
As of 10:00 AM on Saturday 01 Nov 2014 (Local Time) from UHSS Reporting Station
Haze Haze  
Wind Chill: 30°   Ceiling: Unl
Heat Index: 30°   Visibility: 3mi
Dew Point: 28°   Wind: 0mph
Humidity: 93%   Direction: NA
Pressure: 30.21"   Gusts: NA
Location:  47.05°N, 142.06°E
Report Text: UHSS 312300Z 00000MPS 5000 BR NSC M01/M02 Q1023 NOSIG RMKQFE766/1021 19CLRD70
Loading
Personal Weather Stations






























Interactive Weather Map
Tropical Storm Tracking
New forecast layout! Learn more

10-Day Weather Forecast

Advertisements
Track Severe Weather on mobile